sensor_id;sensor_type;location;lat;lon;timestamp;pressure;altitude;pressure_sealevel;temperature;humidity
3250;BME280;1637;42.020;23.992;2023-02-01T00:02:00;92666.28;;;0.94;62.80
3250;BME280;1637;42.020;23.992;2023-02-01T00:04:26;92666.34;;;0.98;62.71
3250;BME280;1637;42.020;23.992;2023-02-01T00:06:53;92678.53;;;1.02;62.54
3250;BME280;1637;42.020;23.992;2023-02-01T00:09:20;92669.75;;;0.98;62.93
3250;BME280;1637;42.020;23.992;2023-02-01T00:11:47;92673.16;;;0.99;63.44
3250;BME280;1637;42.020;23.992;2023-02-01T00:14:14;92666.19;;;0.91;63.89
3250;BME280;1637;42.020;23.992;2023-02-01T00:16:41;92668.66;;;0.84;64.12
3250;BME280;1637;42.020;23.992;2023-02-01T00:19:11;92667.97;;;0.87;64.47
3250;BME280;1637;42.020;23.992;2023-02-01T00:21:39;92671.91;;;0.77;64.61
3250;BME280;1637;42.020;23.992;2023-02-01T00:24:06;92670.47;;;0.80;65.09
3250;BME280;1637;42.020;23.992;2023-02-01T00:26:35;92664.25;;;0.72;65.33
3250;BME280;1637;42.020;23.992;2023-02-01T00:29:04;92645.97;;;0.63;64.42
3250;BME280;1637;42.020;23.992;2023-02-01T00:31:32;92633.50;;;0.60;63.79
3250;BME280;1637;42.020;23.992;2023-02-01T00:33:59;92663.72;;;0.98;63.64
3250;BME280;1637;42.020;23.992;2023-02-01T00:36:27;92655.72;;;0.94;62.95
3250;BME280;1637;42.020;23.992;2023-02-01T00:38:54;92664.16;;;1.00;63.66
3250;BME280;1637;42.020;23.992;2023-02-01T00:41:22;92670.59;;;1.02;63.76
3250;BME280;1637;42.020;23.992;2023-02-01T00:43:49;92667.25;;;0.71;66.20
3250;BME280;1637;42.020;23.992;2023-02-01T00:46:18;92673.28;;;1.06;66.32
3250;BME280;1637;42.020;23.992;2023-02-01T00:48:46;92672.00;;;0.81;66.53
3250;BME280;1637;42.020;23.992;2023-02-01T00:51:18;92674.63;;;0.81;66.47
3250;BME280;1637;42.020;23.992;2023-02-01T00:53:47;92673.59;;;0.85;65.49
3250;BME280;1637;42.020;23.992;2023-02-01T00:56:14;92660.47;;;0.38;70.81
3250;BME280;1637;42.020;23.992;2023-02-01T00:58:41;92665.00;;;-0.06;75.20
3250;BME280;1637;42.020;23.992;2023-02-01T01:01:10;92656.47;;;-0.31;78.07
3250;BME280;1637;42.020;23.992;2023-02-01T01:03:38;92652.28;;;-0.60;81.70
3250;BME280;1637;42.020;23.992;2023-02-01T01:06:07;92650.84;;;-0.85;84.04
3250;BME280;1637;42.020;23.992;2023-02-01T01:08:34;92645.50;;;-0.89;84.55
3250;BME280;1637;42.020;23.992;2023-02-01T01:11:06;92648.56;;;-0.87;84.66
3250;BME280;1637;42.020;23.992;2023-02-01T01:13:33;92639.41;;;-0.77;84.68
3250;BME280;1637;42.020;23.992;2023-02-01T01:16:00;92654.00;;;-0.80;85.41
3250;BME280;1637;42.020;23.992;2023-02-01T01:18:28;92638.97;;;-0.79;84.81
3250;BME280;1637;42.020;23.992;2023-02-01T01:20:55;92635.16;;;-0.82;85.02
3250;BME280;1637;42.020;23.992;2023-02-01T01:23:22;92641.00;;;-0.88;84.67
3250;BME280;1637;42.020;23.992;2023-02-01T01:25:49;92637.44;;;-0.80;83.96
3250;BME280;1637;42.020;23.992;2023-02-01T01:28:17;92644.66;;;-0.65;82.96
3250;BME280;1637;42.020;23.992;2023-02-01T01:30:44;92645.13;;;-0.47;82.44
3250;BME280;1637;42.020;23.992;2023-02-01T01:33:11;92649.03;;;-0.13;79.92
3250;BME280;1637;42.020;23.992;2023-02-01T01:35:38;92649.97;;;-0.06;78.05
3250;BME280;1637;42.020;23.992;2023-02-01T01:38:04;92650.09;;;0.14;76.44
3250;BME280;1637;42.020;23.992;2023-02-01T01:40:31;92647.16;;;0.03;75.99
3250;BME280;1637;42.020;23.992;2023-02-01T01:42:58;92636.72;;;-0.25;78.65
3250;BME280;1637;42.020;23.992;2023-02-01T01:45:27;92604.44;;;-0.65;79.70
3250;BME280;1637;42.020;23.992;2023-02-01T01:47:56;92625.91;;;-0.63;81.43
3250;BME280;1637;42.020;23.992;2023-02-01T01:50:27;92628.44;;;-0.67;82.01
3250;BME280;1637;42.020;23.992;2023-02-01T01:52:58;92629.22;;;-0.66;81.59
3250;BME280;1637;42.020;23.992;2023-02-01T01:55:28;92636.34;;;-0.79;81.10
3250;BME280;1637;42.020;23.992;2023-02-01T01:57:59;92632.28;;;-0.64;78.02
3250;BME280;1637;42.020;23.992;2023-02-01T02:00:29;92635.88;;;-0.41;76.86
3250;BME280;1637;42.020;23.992;2023-02-01T02:02:59;92627.84;;;-0.60;78.32
3250;BME280;1637;42.020;23.992;2023-02-01T02:05:29;92627.38;;;-0.78;79.26
3250;BME280;1637;42.020;23.992;2023-02-01T02:07:58;92630.41;;;-0.64;78.42
3250;BME280;1637;42.020;23.992;2023-02-01T02:10:26;92628.09;;;-0.65;77.95
3250;BME280;1637;42.020;23.992;2023-02-01T02:13:14;92646.78;;;-0.55;78.28
3250;BME280;1637;42.020;23.992;2023-02-01T02:15:52;92646.00;;;-0.43;78.99
3250;BME280;1637;42.020;23.992;2023-02-01T02:18:28;92644.72;;;-0.06;77.90
3250;BME280;1637;42.020;23.992;2023-02-01T02:21:17;92641.13;;;-0.13;76.56
3250;BME280;1637;42.020;23.992;2023-02-01T02:24:28;92656.34;;;-0.35;78.47
3250;BME280;1637;42.020;23.992;2023-02-01T02:27:06;92629.84;;;-0.97;81.51
3250;BME280;1637;42.020;23.992;2023-02-01T02:36:01;92648.84;;;-1.41;85.44
3250;BME280;1637;42.020;23.992;2023-02-01T02:38:35;92655.63;;;-1.27;85.22
3250;BME280;1637;42.020;23.992;2023-02-01T02:41:13;92655.44;;;-1.47;86.65
3250;BME280;1637;42.020;23.992;2023-02-01T02:44:09;92643.16;;;-1.43;86.20
3250;BME280;1637;42.020;23.992;2023-02-01T02:47:01;92645.78;;;-1.55;86.83
3250;BME280;1637;42.020;23.992;2023-02-01T02:49:52;92648.75;;;-1.56;87.15
3250;BME280;1637;42.020;23.992;2023-02-01T02:52:41;92648.63;;;-1.60;86.38
3250;BME280;1637;42.020;23.992;2023-02-01T02:55:30;92656.72;;;-1.53;85.75
3250;BME280;1637;42.020;23.992;2023-02-01T02:58:02;92643.38;;;-1.48;85.52
3250;BME280;1637;42.020;23.992;2023-02-01T03:00:48;92661.31;;;-1.62;85.28
3250;BME280;1637;42.020;23.992;2023-02-01T03:03:36;92655.53;;;-1.67;85.99
3250;BME280;1637;42.020;23.992;2023-02-01T03:06:23;92651.91;;;-1.75;86.38
3250;BME280;1637;42.020;23.992;2023-02-01T03:08:52;92660.78;;;-1.67;86.98
3250;BME280;1637;42.020;23.992;2023-02-01T03:11:23;92641.63;;;-1.92;87.94
3250;BME280;1637;42.020;23.992;2023-02-01T03:14:12;92658.47;;;-1.81;87.64
3250;BME280;1637;42.020;23.992;2023-02-01T03:16:43;92662.28;;;-1.91;88.20
3250;BME280;1637;42.020;23.992;2023-02-01T03:19:16;92665.44;;;-1.97;87.98
3250;BME280;1637;42.020;23.992;2023-02-01T03:21:48;92666.09;;;-2.00;88.20
3250;BME280;1637;42.020;23.992;2023-02-01T03:24:22;92664.75;;;-2.07;88.94
3250;BME280;1637;42.020;23.992;2023-02-01T03:27:01;92665.06;;;-2.20;88.92
3250;BME280;1637;42.020;23.992;2023-02-01T03:29:36;92677.09;;;-2.19;89.34
3250;BME280;1637;42.020;23.992;2023-02-01T03:32:04;92671.19;;;-2.16;89.89
3250;BME280;1637;42.020;23.992;2023-02-01T03:34:32;92653.06;;;-2.42;90.50
3250;BME280;1637;42.020;23.992;2023-02-01T03:37:01;92673.13;;;-2.25;89.59
3250;BME280;1637;42.020;23.992;2023-02-01T03:39:34;92691.41;;;-2.50;89.88
3250;BME280;1637;42.020;23.992;2023-02-01T03:42:04;92635.28;;;-2.69;90.27
3250;BME280;1637;42.020;23.992;2023-02-01T03:44:35;92663.53;;;-2.54;90.19
3250;BME280;1637;42.020;23.992;2023-02-01T03:47:06;92679.91;;;-2.57;90.66
3250;BME280;1637;42.020;23.992;2023-02-01T03:49:36;92674.66;;;-2.57;90.04
3250;BME280;1637;42.020;23.992;2023-02-01T03:52:06;92692.06;;;-2.53;90.22
3250;BME280;1637;42.020;23.992;2023-02-01T03:54:37;92704.00;;;-2.43;89.91
3250;BME280;1637;42.020;23.992;2023-02-01T03:57:09;92702.63;;;-2.28;88.63
3250;BME280;1637;42.020;23.992;2023-02-01T03:59:39;92707.66;;;-2.23;88.03
3250;BME280;1637;42.020;23.992;2023-02-01T04:02:06;92715.38;;;-2.39;88.51
3250;BME280;1637;42.020;23.992;2023-02-01T04:04:34;92714.38;;;-2.67;89.52
3250;BME280;1637;42.020;23.992;2023-02-01T04:07:01;92723.31;;;-2.68;90.14
3250;BME280;1637;42.020;23.992;2023-02-01T04:09:27;92728.13;;;-2.70;89.79
3250;BME280;1637;42.020;23.992;2023-02-01T04:11:56;92723.38;;;-2.77;90.10
3250;BME280;1637;42.020;23.992;2023-02-01T04:14:23;92720.13;;;-2.95;90.95
3250;BME280;1637;42.020;23.992;2023-02-01T04:16:49;92731.72;;;-3.04;91.59
3250;BME280;1637;42.020;23.992;2023-02-01T04:19:16;92730.81;;;-3.08;92.53
3250;BME280;1637;42.020;23.992;2023-02-01T04:21:43;92737.09;;;-3.01;91.95
3250;BME280;1637;42.020;23.992;2023-02-01T04:24:10;92740.63;;;-2.97;89.99
3250;BME280;1637;42.020;23.992;2023-02-01T04:26:37;92733.25;;;-3.03;89.44
3250;BME280;1637;42.020;23.992;2023-02-01T04:29:05;92743.47;;;-3.11;89.90
3250;BME280;1637;42.020;23.992;2023-02-01T04:31:32;92751.91;;;-3.05;89.56
3250;BME280;1637;42.020;23.992;2023-02-01T04:34:01;92712.91;;;-3.27;89.30
3250;BME280;1637;42.020;23.992;2023-02-01T04:36:27;92733.25;;;-3.03;89.39
3250;BME280;1637;42.020;23.992;2023-02-01T04:38:54;92720.66;;;-3.10;89.00
3250;BME280;1637;42.020;23.992;2023-02-01T04:41:21;92720.34;;;-3.08;89.03
3250;BME280;1637;42.020;23.992;2023-02-01T04:43:49;92703.84;;;-3.09;89.20
3250;BME280;1637;42.020;23.992;2023-02-01T04:46:18;92699.84;;;-3.06;88.39
3250;BME280;1637;42.020;23.992;2023-02-01T04:48:45;92705.84;;;-3.06;88.44
3250;BME280;1637;42.020;23.992;2023-02-01T04:51:12;92703.81;;;-3.00;87.78
3250;BME280;1637;42.020;23.992;2023-02-01T04:53:40;92663.72;;;-3.22;87.77
3250;BME280;1637;42.020;23.992;2023-02-01T04:56:07;92714.31;;;-2.80;87.57
3250;BME280;1637;42.020;23.992;2023-02-01T04:58:34;92714.75;;;-2.78;87.96
3250;BME280;1637;42.020;23.992;2023-02-01T05:01:02;92713.81;;;-2.73;87.12
3250;BME280;1637;42.020;23.992;2023-02-01T05:03:31;92728.44;;;-2.72;87.50
3250;BME280;1637;42.020;23.992;2023-02-01T05:05:58;92733.78;;;-2.68;88.37
3250;BME280;1637;42.020;23.992;2023-02-01T05:08:25;92729.09;;;-2.75;88.23
3250;BME280;1637;42.020;23.992;2023-02-01T05:10:54;92732.66;;;-2.80;89.18
3250;BME280;1637;42.020;23.992;2023-02-01T05:13:21;92738.06;;;-2.85;88.78
3250;BME280;1637;42.020;23.992;2023-02-01T05:16:06;92739.09;;;-2.98;88.11
3250;BME280;1637;42.020;23.992;2023-02-01T05:18:34;92734.16;;;-2.99;88.63
3250;BME280;1637;42.020;23.992;2023-02-01T05:21:01;92731.34;;;-3.15;89.37
3250;BME280;1637;42.020;23.992;2023-02-01T05:23:28;92736.44;;;-3.19;89.57
3250;BME280;1637;42.020;23.992;2023-02-01T05:25:58;92709.75;;;-3.41;89.18
3250;BME280;1637;42.020;23.992;2023-02-01T05:28:26;92737.91;;;-3.38;89.46
3250;BME280;1637;42.020;23.992;2023-02-01T05:30:53;92721.06;;;-3.58;90.11
3250;BME280;1637;42.020;23.992;2023-02-01T05:33:20;92752.63;;;-3.25;89.35
3250;BME280;1637;42.020;23.992;2023-02-01T05:35:48;92750.94;;;-3.21;87.94
3250;BME280;1637;42.020;23.992;2023-02-01T05:38:15;92742.03;;;-3.29;88.58
3250;BME280;1637;42.020;23.992;2023-02-01T05:40:42;92749.03;;;-3.41;88.62
3250;BME280;1637;42.020;23.992;2023-02-01T05:43:14;92745.94;;;-3.43;88.51
3250;BME280;1637;42.020;23.992;2023-02-01T05:45:41;92747.00;;;-3.36;88.24
3250;BME280;1637;42.020;23.992;2023-02-01T05:48:08;92738.06;;;-3.35;88.83
3250;BME280;1637;42.020;23.992;2023-02-01T05:50:35;92741.44;;;-3.34;88.43
3250;BME280;1637;42.020;23.992;2023-02-01T05:53:03;92745.47;;;-3.37;87.53
3250;BME280;1637;42.020;23.992;2023-02-01T05:55:30;92738.94;;;-3.31;86.75
3250;BME280;1637;42.020;23.992;2023-02-01T05:57:57;92748.84;;;-3.36;87.23
3250;BME280;1637;42.020;23.992;2023-02-01T06:00:24;92774.19;;;-3.20;87.14
3250;BME280;1637;42.020;23.992;2023-02-01T06:02:51;92763.94;;;-3.04;86.52
3250;BME280;1637;42.020;23.992;2023-02-01T06:05:17;92729.81;;;-3.16;88.58
3250;BME280;1637;42.020;23.992;2023-02-01T06:07:44;92774.66;;;-1.72;91.39
3250;BME280;1637;42.020;23.992;2023-02-01T06:10:13;92775.38;;;-1.84;88.29
3250;BME280;1637;42.020;23.992;2023-02-01T06:12:40;92775.41;;;-1.71;85.50
3250;BME280;1637;42.020;23.992;2023-02-01T06:15:08;92776.09;;;-1.95;83.79
3250;BME280;1637;42.020;23.992;2023-02-01T06:17:34;92754.00;;;-2.27;83.46
3250;BME280;1637;42.020;23.992;2023-02-01T06:20:01;92716.97;;;-2.88;83.72
3250;BME280;1637;42.020;23.992;2023-02-01T06:22:28;92762.75;;;-2.65;86.68
3250;BME280;1637;42.020;23.992;2023-02-01T06:24:55;92775.63;;;-2.51;85.85
3250;BME280;1637;42.020;23.992;2023-02-01T06:27:25;92774.34;;;-2.45;85.12
3250;BME280;1637;42.020;23.992;2023-02-01T06:29:52;92534.69;;;-3.93;84.35
3250;BME280;1637;42.020;23.992;2023-02-01T06:32:20;92771.66;;;-2.16;84.89
3250;BME280;1637;42.020;23.992;2023-02-01T06:34:48;92767.78;;;-2.30;83.55
3250;BME280;1637;42.020;23.992;2023-02-01T06:37:15;92765.72;;;-2.46;84.24
3250;BME280;1637;42.020;23.992;2023-02-01T06:39:42;92757.47;;;-2.56;85.35
3250;BME280;1637;42.020;23.992;2023-02-01T06:42:08;92761.22;;;-2.45;85.98
3250;BME280;1637;42.020;23.992;2023-02-01T06:44:37;92767.56;;;-2.46;84.66
3250;BME280;1637;42.020;23.992;2023-02-01T06:47:04;92767.97;;;-2.35;84.58
3250;BME280;1637;42.020;23.992;2023-02-01T06:49:31;92779.66;;;-2.33;83.77
3250;BME280;1637;42.020;23.992;2023-02-01T06:51:58;92770.75;;;-2.20;83.67
3250;BME280;1637;42.020;23.992;2023-02-01T06:54:25;92767.31;;;-2.12;83.63
3250;BME280;1637;42.020;23.992;2023-02-01T06:56:52;92779.00;;;-2.09;83.23
3250;BME280;1637;42.020;23.992;2023-02-01T06:59:19;92777.91;;;-1.87;82.88
3250;BME280;1637;42.020;23.992;2023-02-01T07:01:47;92773.50;;;-1.83;83.27
3250;BME280;1637;42.020;23.992;2023-02-01T07:04:14;92780.06;;;-1.89;80.91
3250;BME280;1637;42.020;23.992;2023-02-01T07:06:41;92746.25;;;-2.24;81.90
3250;BME280;1637;42.020;23.992;2023-02-01T07:09:08;92780.47;;;-1.99;82.95
3250;BME280;1637;42.020;23.992;2023-02-01T07:11:35;92786.19;;;-1.85;82.86
3250;BME280;1637;42.020;23.992;2023-02-01T07:14:04;92776.22;;;-1.92;81.93
3250;BME280;1637;42.020;23.992;2023-02-01T07:16:31;92777.13;;;-1.88;81.53
3250;BME280;1637;42.020;23.992;2023-02-01T07:18:59;92786.09;;;-1.89;82.02
3250;BME280;1637;42.020;23.992;2023-02-01T07:21:27;92789.69;;;-1.81;83.13
3250;BME280;1637;42.020;23.992;2023-02-01T07:23:54;92787.91;;;-1.68;82.57
3250;BME280;1637;42.020;23.992;2023-02-01T07:26:21;92796.47;;;-1.47;81.84
3250;BME280;1637;42.020;23.992;2023-02-01T07:28:48;92795.97;;;-1.28;80.08
3250;BME280;1637;42.020;23.992;2023-02-01T07:31:16;92797.06;;;-1.17;82.08
3250;BME280;1637;42.020;23.992;2023-02-01T07:33:46;92749.38;;;-1.77;80.49
3250;BME280;1637;42.020;23.992;2023-02-01T07:36:16;92828.25;;;-1.28;81.35
3250;BME280;1637;42.020;23.992;2023-02-01T07:38:43;92792.13;;;-1.19;79.75
3250;BME280;1637;42.020;23.992;2023-02-01T07:41:12;92811.22;;;-1.10;79.33
3250;BME280;1637;42.020;23.992;2023-02-01T07:43:39;92819.84;;;-0.97;79.11
3250;BME280;1637;42.020;23.992;2023-02-01T07:46:06;92813.84;;;-0.97;78.14
3250;BME280;1637;42.020;23.992;2023-02-01T07:48:33;92811.09;;;-0.64;77.95
3250;BME280;1637;42.020;23.992;2023-02-01T07:51:01;92818.75;;;-0.47;77.15
3250;BME280;1637;42.020;23.992;2023-02-01T07:53:30;92838.25;;;-0.24;76.40
3250;BME280;1637;42.020;23.992;2023-02-01T07:55:57;92835.63;;;0.04;75.19
3250;BME280;1637;42.020;23.992;2023-02-01T07:58:25;92847.56;;;0.42;74.25
3250;BME280;1637;42.020;23.992;2023-02-01T08:00:52;92839.00;;;0.45;75.19
3250;BME280;1637;42.020;23.992;2023-02-01T08:03:36;92833.72;;;0.73;74.20
3250;BME280;1637;42.020;23.992;2023-02-01T08:06:04;92839.09;;;0.48;74.21
3250;BME280;1637;42.020;23.992;2023-02-01T08:08:33;92831.97;;;0.49;74.58
3250;BME280;1637;42.020;23.992;2023-02-01T08:11:01;92831.50;;;0.59;74.80
3250;BME280;1637;42.020;23.992;2023-02-01T08:13:28;92841.28;;;0.74;74.28
3250;BME280;1637;42.020;23.992;2023-02-01T08:15:57;92838.50;;;0.83;73.40
3250;BME280;1637;42.020;23.992;2023-02-01T08:18:24;92834.50;;;1.04;73.72
3250;BME280;1637;42.020;23.992;2023-02-01T08:20:51;92836.53;;;0.80;73.53
3250;BME280;1637;42.020;23.992;2023-02-01T08:23:18;92838.44;;;1.26;73.44
3250;BME280;1637;42.020;23.992;2023-02-01T08:25:46;92842.78;;;1.34;73.01
3250;BME280;1637;42.020;23.992;2023-02-01T08:28:14;92857.75;;;1.30;72.29
3250;BME280;1637;42.020;23.992;2023-02-01T08:30:41;92854.50;;;1.53;72.13
3250;BME280;1637;42.020;23.992;2023-02-01T08:33:08;92847.84;;;1.75;70.50
3250;BME280;1637;42.020;23.992;2023-02-01T08:35:36;92840.75;;;1.44;71.80
3250;BME280;1637;42.020;23.992;2023-02-01T08:38:03;92836.88;;;1.57;73.25
3250;BME280;1637;42.020;23.992;2023-02-01T08:40:30;92856.69;;;1.82;72.04
3250;BME280;1637;42.020;23.992;2023-02-01T08:42:58;92839.78;;;3.02;69.16
3250;BME280;1637;42.020;23.992;2023-02-01T08:45:28;92847.59;;;3.41;66.81
3250;BME280;1637;42.020;23.992;2023-02-01T08:47:55;92858.03;;;3.07;66.37
3250;BME280;1637;42.020;23.992;2023-02-01T08:50:23;92848.06;;;3.69;64.95
3250;BME280;1637;42.020;23.992;2023-02-01T08:52:50;92847.59;;;4.46;63.10
3250;BME280;1637;42.020;23.992;2023-02-01T08:55:17;92852.59;;;7.11;57.37
3250;BME280;1637;42.020;23.992;2023-02-01T08:57:44;92851.16;;;7.78;55.60
3250;BME280;1637;42.020;23.992;2023-02-01T09:00:15;92849.97;;;8.46;52.87
3250;BME280;1637;42.020;23.992;2023-02-01T09:02:42;92850.78;;;7.47;52.85
3250;BME280;1637;42.020;23.992;2023-02-01T09:05:10;92848.88;;;7.58;54.63
3250;BME280;1637;42.020;23.992;2023-02-01T09:07:37;92821.44;;;7.47;53.40
3250;BME280;1637;42.020;23.992;2023-02-01T09:10:05;92812.06;;;6.49;54.86
3250;BME280;1637;42.020;23.992;2023-02-01T09:12:33;92849.66;;;6.37;54.55
3250;BME280;1637;42.020;23.992;2023-02-01T09:15:00;92845.97;;;6.66;54.19
3250;BME280;1637;42.020;23.992;2023-02-01T09:17:29;92845.34;;;6.14;55.75
3250;BME280;1637;42.020;23.992;2023-02-01T09:19:56;92746.50;;;5.43;54.07
3250;BME280;1637;42.020;23.992;2023-02-01T09:22:22;92846.03;;;6.80;53.90
3250;BME280;1637;42.020;23.992;2023-02-01T09:24:49;92843.75;;;6.79;53.35
3250;BME280;1637;42.020;23.992;2023-02-01T09:27:16;92845.03;;;7.24;52.41
3250;BME280;1637;42.020;23.992;2023-02-01T09:29:43;92837.78;;;7.17;52.22
3250;BME280;1637;42.020;23.992;2023-02-01T09:32:10;92838.44;;;6.82;54.00
3250;BME280;1637;42.020;23.992;2023-02-01T09:34:38;92853.78;;;7.35;53.85
3250;BME280;1637;42.020;23.992;2023-02-01T09:37:05;92808.50;;;5.62;56.16
3250;BME280;1637;42.020;23.992;2023-02-01T09:39:32;92819.78;;;5.96;57.30
3250;BME280;1637;42.020;23.992;2023-02-01T09:42:05;92811.75;;;6.68;55.46
3250;BME280;1637;42.020;23.992;2023-02-01T09:44:53;92811.03;;;5.92;55.49
3250;BME280;1637;42.020;23.992;2023-02-01T09:47:24;92807.69;;;5.54;56.23
3250;BME280;1637;42.020;23.992;2023-02-01T09:49:56;92801.44;;;6.49;57.65
3250;BME280;1637;42.020;23.992;2023-02-01T09:52:29;92807.72;;;7.31;52.92
3250;BME280;1637;42.020;23.992;2023-02-01T09:55:01;92727.06;;;7.06;52.04
3250;BME280;1637;42.020;23.992;2023-02-01T09:57:40;92826.00;;;8.07;50.17
3250;BME280;1637;42.020;23.992;2023-02-01T10:00:16;92814.53;;;7.14;51.67
3250;BME280;1637;42.020;23.992;2023-02-01T10:02:44;92823.34;;;7.72;51.24
3250;BME280;1637;42.020;23.992;2023-02-01T10:05:16;92813.59;;;6.50;52.56
3250;BME280;1637;42.020;23.992;2023-02-01T10:07:54;92812.03;;;5.76;55.37
3250;BME280;1637;42.020;23.992;2023-02-01T10:10:28;92810.69;;;5.97;55.75
3250;BME280;1637;42.020;23.992;2023-02-01T10:13:13;92803.72;;;5.81;55.77
3250;BME280;1637;42.020;23.992;2023-02-01T10:16:02;92791.09;;;5.20;56.05
3250;BME280;1637;42.020;23.992;2023-02-01T10:18:45;92801.78;;;5.27;56.07
3250;BME280;1637;42.020;23.992;2023-02-01T10:21:26;92766.44;;;5.16;57.02
3250;BME280;1637;42.020;23.992;2023-02-01T10:24:19;92793.38;;;5.22;55.95
3250;BME280;1637;42.020;23.992;2023-02-01T10:26:51;92794.69;;;5.38;56.18
3250;BME280;1637;42.020;23.992;2023-02-01T10:29:25;92781.28;;;5.75;55.71
3250;BME280;1637;42.020;23.992;2023-02-01T10:31:53;92783.38;;;5.48;56.10
3250;BME280;1637;42.020;23.992;2023-02-01T10:34:22;92731.94;;;5.23;55.26
3250;BME280;1637;42.020;23.992;2023-02-01T10:36:59;92761.44;;;5.59;56.21
3250;BME280;1637;42.020;23.992;2023-02-01T10:39:27;92754.22;;;5.63;56.35
3250;BME280;1637;42.020;23.992;2023-02-01T10:41:55;92755.47;;;5.76;56.29
3250;BME280;1637;42.020;23.992;2023-02-01T10:44:26;92760.44;;;5.81;56.34
3250;BME280;1637;42.020;23.992;2023-02-01T10:46:54;92765.38;;;5.79;55.24
3250;BME280;1637;42.020;23.992;2023-02-01T10:49:26;92749.34;;;5.68;55.64
3250;BME280;1637;42.020;23.992;2023-02-01T10:52:00;92756.25;;;5.83;54.76
3250;BME280;1637;42.020;23.992;2023-02-01T10:54:35;92763.31;;;6.20;53.88
3250;BME280;1637;42.020;23.992;2023-02-01T10:57:07;92757.22;;;6.16;55.38
3250;BME280;1637;42.020;23.992;2023-02-01T10:59:34;92758.94;;;5.87;54.54
3250;BME280;1637;42.020;23.992;2023-02-01T11:02:15;92718.94;;;5.66;55.41
3250;BME280;1637;42.020;23.992;2023-02-01T11:04:42;92739.53;;;5.83;55.41
3250;BME280;1637;42.020;23.992;2023-02-01T11:07:20;92705.72;;;5.73;54.81
3250;BME280;1637;42.020;23.992;2023-02-01T11:09:51;92729.03;;;5.97;54.66
3250;BME280;1637;42.020;23.992;2023-02-01T11:12:27;92729.91;;;6.23;54.81
3250;BME280;1637;42.020;23.992;2023-02-01T11:14:59;92728.53;;;6.75;55.20
3250;BME280;1637;42.020;23.992;2023-02-01T11:17:34;92731.59;;;7.16;53.02
3250;BME280;1637;42.020;23.992;2023-02-01T11:20:04;92730.09;;;7.43;51.47
3250;BME280;1637;42.020;23.992;2023-02-01T11:22:33;92713.34;;;7.43;52.87
3250;BME280;1637;42.020;23.992;2023-02-01T11:25:01;92714.84;;;6.83;53.28
3250;BME280;1637;42.020;23.992;2023-02-01T11:27:34;92707.63;;;6.87;53.76
3250;BME280;1637;42.020;23.992;2023-02-01T11:30:02;92711.44;;;7.01;52.46
3250;BME280;1637;42.020;23.992;2023-02-01T11:32:30;92714.88;;;7.47;53.55
3250;BME280;1637;42.020;23.992;2023-02-01T11:35:00;92721.50;;;8.30;51.46
3250;BME280;1637;42.020;23.992;2023-02-01T11:37:31;92704.19;;;7.54;49.73
3250;BME280;1637;42.020;23.992;2023-02-01T11:40:03;92709.53;;;6.83;49.80
3250;BME280;1637;42.020;23.992;2023-02-01T11:42:31;92703.41;;;6.62;51.55
3250;BME280;1637;42.020;23.992;2023-02-01T11:45:17;92704.91;;;6.52;50.84
3250;BME280;1637;42.020;23.992;2023-02-01T11:47:44;92701.88;;;6.53;50.99
3250;BME280;1637;42.020;23.992;2023-02-01T11:50:16;92699.66;;;7.16;50.15
3250;BME280;1637;42.020;23.992;2023-02-01T11:52:56;92697.75;;;7.23;49.64
3250;BME280;1637;42.020;23.992;2023-02-01T11:55:39;92703.81;;;7.42;48.69
3250;BME280;1637;42.020;23.992;2023-02-01T11:58:27;92707.41;;;8.30;47.97
3250;BME280;1637;42.020;23.992;2023-02-01T12:01:07;92707.63;;;8.67;46.99
3250;BME280;1637;42.020;23.992;2023-02-01T12:06:48;92697.56;;;8.92;45.61
3250;BME280;1637;42.020;23.992;2023-02-01T12:09:35;92687.19;;;9.02;45.87
3250;BME280;1637;42.020;23.992;2023-02-01T12:12:12;92686.81;;;9.48;46.14
3250;BME280;1637;42.020;23.992;2023-02-01T12:14:50;92687.50;;;9.11;45.72
3250;BME280;1637;42.020;23.992;2023-02-01T12:17:45;92687.91;;;8.47;48.04
3250;BME280;1637;42.020;23.992;2023-02-01T12:20:27;92681.06;;;8.39;50.09
3250;BME280;1637;42.020;23.992;2023-02-01T12:23:06;92672.22;;;8.52;49.17
3250;BME280;1637;42.020;23.992;2023-02-01T12:25:55;92688.03;;;8.11;49.44
3250;BME280;1637;42.020;23.992;2023-02-01T12:28:40;92680.31;;;8.42;50.22
3250;BME280;1637;42.020;23.992;2023-02-01T12:31:29;92690.25;;;8.27;49.16
3250;BME280;1637;42.020;23.992;2023-02-01T12:34:11;92688.59;;;8.58;48.62
3250;BME280;1637;42.020;23.992;2023-02-01T12:36:46;92690.59;;;9.06;49.36
3250;BME280;1637;42.020;23.992;2023-02-01T12:39:22;92685.75;;;8.86;49.11
3250;BME280;1637;42.020;23.992;2023-02-01T12:41:55;92697.06;;;8.46;46.64
3250;BME280;1637;42.020;23.992;2023-02-01T12:44:32;92664.13;;;7.86;48.35
3250;BME280;1637;42.020;23.992;2023-02-01T12:47:06;92680.50;;;7.88;49.02
3250;BME280;1637;42.020;23.992;2023-02-01T12:49:44;92678.09;;;8.19;49.11
3250;BME280;1637;42.020;23.992;2023-02-01T12:52:15;92669.84;;;7.78;50.16
3250;BME280;1637;42.020;23.992;2023-02-01T12:54:47;92666.81;;;7.83;50.49
3250;BME280;1637;42.020;23.992;2023-02-01T12:57:18;92678.19;;;7.94;49.96
3250;BME280;1637;42.020;23.992;2023-02-01T12:59:52;92674.84;;;7.69;49.69
3250;BME280;1637;42.020;23.992;2023-02-01T13:02:27;92676.81;;;7.22;49.93
3250;BME280;1637;42.020;23.992;2023-02-01T13:05:03;92671.09;;;7.09;49.94
3250;BME280;1637;42.020;23.992;2023-02-01T13:07:36;92669.97;;;7.07;51.42
3250;BME280;1637;42.020;23.992;2023-02-01T13:10:12;92677.97;;;6.96;49.65
3250;BME280;1637;42.020;23.992;2023-02-01T13:12:49;92639.53;;;6.86;49.14
3250;BME280;1637;42.020;23.992;2023-02-01T13:15:21;92673.00;;;7.37;49.70
3250;BME280;1637;42.020;23.992;2023-02-01T13:17:52;92671.81;;;7.63;48.94
3250;BME280;1637;42.020;23.992;2023-02-01T13:20:29;92641.78;;;7.34;49.03
3250;BME280;1637;42.020;23.992;2023-02-01T13:23:00;92673.00;;;7.48;50.44
3250;BME280;1637;42.020;23.992;2023-02-01T13:25:32;92684.00;;;7.68;49.70
3250;BME280;1637;42.020;23.992;2023-02-01T13:28:03;92683.22;;;7.67;49.69
3250;BME280;1637;42.020;23.992;2023-02-01T13:30:43;92688.16;;;7.72;50.03
3250;BME280;1637;42.020;23.992;2023-02-01T13:33:38;92690.38;;;7.99;50.44
3250;BME280;1637;42.020;23.992;2023-02-01T13:36:24;92685.13;;;7.63;49.60
3250;BME280;1637;42.020;23.992;2023-02-01T13:39:33;92685.84;;;7.78;49.62
3250;BME280;1637;42.020;23.992;2023-02-01T13:42:13;92674.81;;;7.83;49.38
3250;BME280;1637;42.020;23.992;2023-02-01T13:44:44;92672.94;;;7.66;50.10
3250;BME280;1637;42.020;23.992;2023-02-01T13:47:21;92679.00;;;7.80;49.30
3250;BME280;1637;42.020;23.992;2023-02-01T13:49:50;92682.81;;;7.76;48.50